ADDS METAR Data INFO
IDs: Format: Raw Decoded Include TAF

Data at: 0501 UTC 23 May 2017

KGEY 230453Z AUTO 30011KT 10SM CLR 10/04 A3022 RMK AO2 SLP234 T01000039
KGEY 230353Z AUTO 30010KT 10SM CLR 10/04 A3022 RMK AO2 SLP227 T01000044
KGEY 230253Z AUTO 30007KT 10SM CLR 12/04 A3020 RMK AO2 PK WND 30028/0201 SLP219 P0001 60002 T01170044 53005
KGEY 230153Z AUTO 33008KT 10SM FEW070 FEW100 14/05 A3019 RMK AO2 LTG DSNT W AND NW RAB01E20 SLP215 P0001 T01440050
KGEY 230053Z AUTO 31011G18KT 10SM BKN090 17/04 A3018 RMK AO2 SLP209 T01720044
KGEY 222353Z AUTO 29011KT 10SM SCT065 SCT080 17/04 A3018 RMK AO2 LTG DSNT NW SLP209 60005 T01720044 10172 20100 58002
KGEY 222253Z AUTO 32016G24KT 10SM BKN100 16/06 A3019 RMK AO2 PK WND 31031/2233 SLP216 T01560056
KGEY 222153Z AUTO 32024G29KT 10SM CLR 15/06 A3018 RMK AO2 PK WND 31038/2115 RAB12E32 SLP212 P0002 T01500061
KGEY 222053Z AUTO 31017KT 10SM FEW085 14/07 A3019 RMK AO2 PK WND 34034/1957 RAB1958E26 SLP216 P0000 60003 T01440067 55001
KGEY 221953Z AUTO 32018KT 10SM BKN085 BKN110 13/06 A3018 RMK AO2 LTG DSNT NW RAE04 SLP213 P0000 T01330061
KGEY 221853Z AUTO 36011KT 3SM RA FEW030 BKN038 OVC060 10/07 A3019 RMK AO2 PK WND 32027/1821 WSHFT 1828 RAB30 SLP222 P0003 T01000067
KGEY 221848Z AUTO 01016G25KT 5SM RA FEW031 BKN040 BKN047 10/06 A3019 RMK AO2 PK WND 32027/1821 WSHFT 1828 RAB30 P0001
KGEY 221753Z AUTO 30019G25KT 10SM SCT090 BKN120 12/07 A3018 RMK AO2 RAE17 SLP215 P0000 60005 T01170067 10128 20089 50001
KGEY 221653Z AUTO 32017KT 10SM -RA FEW037 BKN047 OVC060 10/07 A3020 RMK AO2 PK WND 36034/1635 SLP224 P0004 T01000067
KGEY 221553Z AUTO 31015KT 10SM -RA BKN049 OVC065 12/07 A3018 RMK AO2 SLP210 P0001 T01170067
KGEY 221453Z AUTO 30005KT 10SM -RA BKN050 BKN065 OVC090 11/03 A3018 RMK AO2 RAB37 SLP206 P0000 60000 T01110033 53016
KGEY 221353Z AUTO 13003KT 10SM OVC095 10/03 A3016 RMK AO2 SLP197 T01000033 $
KGEY 221253Z AUTO 35004KT 10SM BKN100 09/02 A3014 RMK AO2 SLP191 T00940022 $
KGEY 221153Z AUTO 16005KT 10SM OVC110 09/02 A3013 RMK AO2 SLP186 T00890017 10111 20083 58009 $
KGEY 221053Z AUTO 00000KT 10SM BKN100 OVC120 09/01 A3014 RMK AO2 SLP191 T00890006 $
KGEY 220953Z AUTO 14004KT 10SM FEW090 SCT120 09/01 A3015 RMK AO2 SLP195 T00890006 $
KGEY 220853Z AUTO 08004KT 10SM SCT090 OVC110 09/01 A3016 RMK AO2 SLP201 T00890011 58004 $
KGEY 220753Z AUTO VRB03KT 10SM SCT100 09/00 A3016 RMK AO2 SLP200 T00940000 $
KGEY 220653Z AUTO 00000KT 10SM FEW100 09/00 A3017 RMK AO2 SLP207 T00940000 402060056 $
KGEY 220553Z AUTO 13005KT 10SM SCT110 11/M01 A3017 RMK AO2 SLP206 T01061006 10200 20100 51006 $
KGEY 220453Z AUTO 26007KT 10SM CLR 11/M01 A3017 RMK AO2 SLP201 T01111011 $
KGEY 220353Z AUTO 32005KT 10SM CLR 14/M02 A3017 RMK AO2 SLP199 T01391022 $
KGEY 220253Z AUTO 36007KT 10SM CLR 16/M03 A3015 RMK AO2 SLP195 T01611028 53005 $
KGEY 220153Z AUTO 35013KT 10SM CLR 18/M04 A3014 RMK AO2 SLP190 T01831039 $
KGEY 220053Z AUTO 34016G23KT 10SM CLR 19/M03 A3013 RMK AO2 PK WND 33026/0027 SLP190 T01941033 $
KGEY 212353Z AUTO 36018G24KT 10SM CLR 20/M03 A3014 RMK AO2 PK WND 36026/2332 SLP193 60000 T02001028 10206 20133 56009 $
KGEY 212253Z AUTO 34012G22KT 10SM CLR 20/M03 A3014 RMK AO2 PK WND 35027/2222 SLP191 T02001033 $
KGEY 212153Z AUTO 33016KT 10SM CLR 19/M02 A3015 RMK AO2 PK WND 33026/2107 SLP195 T01941017 $
KGEY 212053Z AUTO 34012G19KT 10SM SCT100 18/M02 A3017 RMK AO2 PK WND 35030/2013 SLP202 60000 T01781017 58010 $
KGEY 211953Z AUTO 33015G23KT 10SM CLR 18/M01 A3017 RMK AO2 PK WND 35034/1907 RAE22 SLP202 P0000 T01831006 $
KGEY 211853Z AUTO 35024G35KT 10SM -RA FEW055 FEW070 SCT080 16/02 A3020 RMK AO2 PK WND 34041/1841 RAB53 SLP214 P0000 T01560022 $
KGEY 211844Z AUTO 34031G41KT 10SM SQ FEW070 17/02 A3020 RMK AO2 PK WND 34041/1841 T01720022 $
KGEY 211753Z AUTO 32013KT 10SM BKN100 16/01 A3020 RMK AO2 SLP214 T01610006 10172 20056 50002 $


Page loaded:  05:01 UTC  |   10:01 PM Pacific  |   11:01 PM Mountain  |   12:01 AM Central  |   01:01 AM Eastern

 

ADVISORIES

FORECASTS

FORECASTS

OBSERVATIONS

USER TOOLS

ABOUT US